createdAt,value
2019-04-29T00:03:20.142Z,2.90
2019-04-29T00:08:25.148Z,2.73
2019-04-29T00:13:30.418Z,2.70
2019-04-29T00:18:50.387Z,3.03
2019-04-29T00:24:03.549Z,2.87
2019-04-29T00:29:01.832Z,2.30
2019-04-29T00:34:26.181Z,1.93
2019-04-29T00:39:58.041Z,2.50
2019-04-29T00:45:03.792Z,2.20
2019-04-29T00:50:08.902Z,2.17
2019-04-29T00:55:16.589Z,2.33
2019-04-29T01:00:34.611Z,2.90
2019-04-29T01:05:40.442Z,4.90
2019-04-29T01:10:45.188Z,2.20
2019-04-29T01:15:50.009Z,2.93
2019-04-29T01:20:55.262Z,3.67
2019-04-29T01:26:06.867Z,2.83
2019-04-29T01:31:25.447Z,3.90
2019-04-29T01:36:42.476Z,3.07
2019-04-29T01:42:02.185Z,2.50
2019-04-29T01:47:07.106Z,2.30
2019-04-29T01:52:12.035Z,2.50
2019-04-29T01:57:16.968Z,3.30
2019-04-29T02:02:21.027Z,2.77
2019-04-29T02:07:25.186Z,3.63
2019-04-29T02:12:29.231Z,3.43
2019-04-29T02:17:33.118Z,2.90
2019-04-29T02:22:49.276Z,3.43
2019-04-29T02:27:54.175Z,2.77
2019-04-29T02:32:59.010Z,3.50
2019-04-29T02:38:05.915Z,2.40
2019-04-29T02:43:16.826Z,3.17
2019-04-29T02:48:21.850Z,4.27
2019-04-29T02:53:26.936Z,4.40
2019-04-29T02:58:52.464Z,3.77
2019-04-29T03:04:18.992Z,2.83
2019-04-29T03:09:24.091Z,4.20
2019-04-29T03:14:28.930Z,3.00
2019-04-29T03:19:37.680Z,3.40
2019-04-29T03:24:43.071Z,4.33
2019-04-29T03:29:47.968Z,4.70
2019-04-29T03:34:53.639Z,3.00
2019-04-29T03:39:58.505Z,3.77
2019-04-29T03:45:04.365Z,2.40
2019-04-29T03:50:10.053Z,2.93
2019-04-29T03:55:15.413Z,3.07
2019-04-29T04:00:20.796Z,3.63
2019-04-29T04:05:39.288Z,3.10
2019-04-29T04:10:44.554Z,4.00
2019-04-29T04:15:50.150Z,3.67
2019-04-29T04:20:56.084Z,2.97
2019-04-29T04:26:01.709Z,4.03
2019-04-29T04:31:08.050Z,4.13
2019-04-29T04:36:13.707Z,3.40
2019-04-29T04:41:19.171Z,3.73
2019-04-29T04:46:23.717Z,6.27
2019-04-29T04:51:32.573Z,4.17
2019-04-29T04:56:37.626Z,3.33
2019-04-29T05:01:41.904Z,3.97
2019-04-29T05:06:46.555Z,4.17
2019-04-29T05:11:56.996Z,4.00
2019-04-29T05:17:01.833Z,4.03
2019-04-29T05:22:06.720Z,8.63
2019-04-29T05:27:11.644Z,6.43
2019-04-29T05:32:16.771Z,5.53
2019-04-29T05:37:39.151Z,5.67
2019-04-29T05:42:48.202Z,7.07
2019-04-29T05:48:05.222Z,6.73
2019-04-29T05:53:21.460Z,8.37
2019-04-29T05:58:26.849Z,11.87
2019-04-29T06:03:33.457Z,16.97
2019-04-29T06:08:40.642Z,12.40
2019-04-29T06:13:46.610Z,13.97
2019-04-29T06:18:59.732Z,17.40
2019-04-29T06:24:03.680Z,16.43
2019-04-29T06:29:06.625Z,20.50
2019-04-29T06:34:13.317Z,18.10
2019-04-29T06:39:18.617Z,14.97
2019-04-29T06:44:23.792Z,14.70
2019-04-29T06:49:29.364Z,16.77
2019-04-29T06:54:34.990Z,19.10
2019-04-29T06:59:42.973Z,20.00
2019-04-29T07:04:46.717Z,19.27
2019-04-29T07:09:53.112Z,20.00
2019-04-29T07:14:58.977Z,20.60
2019-04-29T07:20:04.275Z,19.60
2019-04-29T07:25:09.915Z,19.70
2019-04-29T07:30:15.988Z,19.93
2019-04-29T07:35:21.290Z,18.93
2019-04-29T07:40:26.565Z,18.37
2019-04-29T07:46:03.852Z,17.77
2019-04-29T07:51:06.318Z,17.37
2019-04-29T07:56:10.759Z,18.43
2019-04-29T08:01:19.925Z,14.03
2019-04-29T08:06:22.898Z,13.40
2019-04-29T08:11:30.192Z,13.93
2019-04-29T08:16:35.476Z,13.43
2019-04-29T08:21:40.221Z,12.13
2019-04-29T08:26:47.460Z,11.10
2019-04-29T08:31:51.822Z,12.33
2019-04-29T08:36:57.057Z,16.93
2019-04-29T08:42:08.724Z,10.30
2019-04-29T08:47:18.389Z,12.57
2019-04-29T08:52:23.913Z,12.93
2019-04-29T08:57:31.809Z,11.60
2019-04-29T09:02:41.602Z,11.10
2019-04-29T09:07:45.854Z,14.90
2019-04-29T09:12:52.300Z,15.97
2019-04-29T09:17:59.156Z,11.80
2019-04-29T09:23:08.158Z,9.60
2019-04-29T09:28:17.956Z,12.47
2019-04-29T09:33:20.788Z,8.37
2019-04-29T09:38:28.411Z,14.10
2019-04-29T09:44:07.006Z,13.03
2019-04-29T09:49:12.709Z,14.40
2019-04-29T09:54:18.015Z,9.57
2019-04-29T09:59:33.469Z,11.70
2019-04-29T10:04:55.754Z,9.00
2019-04-29T10:09:57.238Z,11.10
2019-04-29T10:14:59.865Z,12.23
2019-04-29T10:20:44.551Z,12.03
2019-04-29T10:25:49.269Z,8.47
2019-04-29T10:30:53.874Z,10.23
2019-04-29T10:35:57.565Z,10.07
2019-04-29T10:41:06.996Z,9.50
2019-04-29T10:46:28.873Z,9.43
2019-04-29T10:51:33.449Z,11.47
2019-04-29T10:57:14.749Z,6.73
2019-04-29T11:02:37.408Z,7.97
2019-04-29T11:07:43.778Z,8.43
2019-04-29T11:12:49.348Z,10.37
2019-04-29T11:17:59.347Z,9.10
2019-04-29T11:23:28.961Z,7.43
2019-04-29T11:28:35.340Z,9.13
2019-04-29T11:34:01.159Z,8.50
2019-04-29T11:39:09.035Z,10.47
2019-04-29T11:44:16.105Z,9.07
2019-04-29T11:49:27.563Z,8.00
2019-04-29T11:54:31.806Z,11.70
2019-04-29T11:59:54.790Z,7.57
2019-04-29T12:05:18.880Z,10.60
2019-04-29T12:10:24.943Z,9.43
2019-04-29T12:15:53.256Z,6.10
2019-04-29T12:21:17.166Z,6.83
2019-04-29T12:26:23.418Z,10.07
2019-04-29T12:31:38.941Z,8.27
2019-04-29T12:36:56.240Z,6.87
2019-04-29T12:42:14.161Z,8.17
2019-04-29T12:47:28.191Z,7.80
2019-04-29T12:52:33.413Z,5.20
2019-04-29T12:57:38.692Z,5.67
2019-04-29T13:03:02.028Z,3.93
2019-04-29T13:08:25.167Z,5.00
2019-04-29T13:13:30.656Z,4.90
2019-04-29T13:19:10.633Z,4.60
2019-04-29T13:24:21.838Z,3.23
2019-04-29T13:29:26.378Z,4.50
2019-04-29T13:34:34.319Z,3.03
2019-04-29T13:39:40.842Z,3.43
2019-04-29T13:45:05.079Z,2.73
2019-04-29T13:50:18.747Z,2.53
2019-04-29T13:55:46.564Z,3.93
2019-04-29T14:00:59.915Z,6.93
2019-04-29T14:06:07.710Z,3.03
2019-04-29T14:11:12.625Z,4.03
2019-04-29T14:16:19.331Z,7.23
2019-04-29T14:21:25.648Z,3.53
2019-04-29T14:26:31.664Z,7.80
2019-04-29T14:31:36.194Z,6.23
2019-04-29T14:36:40.736Z,12.10
2019-04-29T14:41:55.452Z,3.73
2019-04-29T14:47:20.894Z,3.40
2019-04-29T14:52:26.498Z,6.67
2019-04-29T14:57:31.792Z,6.57
2019-04-29T15:02:37.921Z,7.73
2019-04-29T15:07:43.702Z,8.43
2019-04-29T15:13:06.718Z,4.40
2019-04-29T15:18:38.484Z,17.77
2019-04-29T15:23:32.785Z,7.80
2019-04-29T15:28:51.335Z,6.53
2019-04-29T15:33:57.894Z,6.57
2019-04-29T15:39:11.047Z,11.63
2019-04-29T15:44:20.411Z,7.70
2019-04-29T15:49:24.842Z,6.10
2019-04-29T15:54:28.566Z,6.63
2019-04-29T15:59:48.027Z,10.20
2019-04-29T16:04:48.700Z,6.33
2019-04-29T16:10:28.864Z,5.97
2019-04-29T16:15:34.294Z,8.60
2019-04-29T16:20:39.588Z,8.80
2019-04-29T16:25:46.359Z,6.50
2019-04-29T16:30:52.951Z,7.33
2019-04-29T16:36:04.747Z,7.30
2019-04-29T16:41:24.769Z,10.97
2019-04-29T16:46:37.336Z,9.70
2019-04-29T16:51:37.224Z,6.60
2019-04-29T16:56:42.046Z,8.30
2019-04-29T17:01:46.390Z,9.47
2019-04-29T17:07:11.092Z,7.90
2019-04-29T17:11:58.417Z,8.80
2019-04-29T17:17:05.726Z,12.60
2019-04-29T17:22:27.733Z,7.67
2019-04-29T17:27:45.491Z,9.17
2019-04-29T17:33:26.580Z,10.37
2019-04-29T17:38:23.978Z,11.17
2019-04-29T17:43:58.840Z,17.30
2019-04-29T17:49:15.568Z,10.70
2019-04-29T17:54:44.906Z,12.67
2019-04-29T18:00:08.674Z,10.87
2019-04-29T18:05:32.423Z,13.47
2019-04-29T18:10:40.300Z,15.57
2019-04-29T18:15:58.632Z,13.50
2019-04-29T18:21:27.616Z,14.87
2019-04-29T18:26:39.334Z,13.37
2019-04-29T18:31:44.534Z,13.37
2019-04-29T18:36:48.936Z,18.13
2019-04-29T18:41:54.738Z,22.70
2019-04-29T18:46:58.195Z,15.90
2019-04-29T18:52:05.668Z,17.37
2019-04-29T18:57:08.987Z,19.00
2019-04-29T19:02:14.900Z,19.67
2019-04-29T19:07:20.391Z,17.73
2019-04-29T19:12:26.595Z,19.00
2019-04-29T19:17:36.690Z,20.90
2019-04-29T19:22:43.673Z,19.90
2019-04-29T19:27:47.117Z,20.83
2019-04-29T19:32:53.880Z,22.07
2019-04-29T19:38:00.767Z,25.20
2019-04-29T19:43:10.202Z,21.20
2019-04-29T19:48:16.134Z,27.20
2019-04-29T19:53:20.598Z,29.00
2019-04-29T19:58:29.874Z,23.40
2019-04-29T20:03:41.201Z,25.43
2019-04-29T20:08:53.840Z,26.57
2019-04-29T20:14:02.138Z,25.30
2019-04-29T20:19:16.577Z,27.57
2019-04-29T20:24:17.919Z,27.93
2019-04-29T20:29:27.138Z,27.67
2019-04-29T20:34:29.418Z,26.97
2019-04-29T20:39:35.737Z,30.40
2019-04-29T20:44:44.479Z,29.00
2019-04-29T20:49:48.204Z,29.73
2019-04-29T20:55:00.860Z,31.30
2019-04-29T21:00:01.001Z,33.30
2019-04-29T21:05:09.808Z,30.33
2019-04-29T21:10:15.874Z,31.90
2019-04-29T21:15:31.886Z,30.40
2019-04-29T21:20:36.685Z,34.00
2019-04-29T21:25:41.863Z,38.27
2019-04-29T21:30:46.545Z,36.23
2019-04-29T21:36:02.583Z,38.27
2019-04-29T21:41:15.430Z,37.87
2019-04-29T21:46:25.721Z,40.30
2019-04-29T21:51:25.644Z,36.87
2019-04-29T21:56:29.973Z,40.37
2019-04-29T22:01:37.296Z,35.67
2019-04-29T22:06:39.968Z,35.27
2019-04-29T22:11:44.683Z,33.47
2019-04-29T22:16:54.333Z,35.13
2019-04-29T22:22:01.249Z,37.10
2019-04-29T22:27:06.062Z,36.87
2019-04-29T22:32:15.069Z,34.47
2019-04-29T22:37:20.748Z,33.77
2019-04-29T22:42:42.300Z,34.13
2019-04-29T22:47:47.372Z,38.33
2019-04-29T22:52:54.913Z,38.23
2019-04-29T22:58:00.895Z,39.00
2019-04-29T23:03:06.495Z,43.60
2019-04-29T23:08:15.304Z,47.80
2019-04-29T23:13:20.036Z,46.80
2019-04-29T23:18:29.054Z,51.00
2019-04-29T23:23:41.948Z,44.87
2019-04-29T23:28:47.034Z,45.50
2019-04-29T23:33:53.199Z,45.87
2019-04-29T23:38:58.320Z,43.00
2019-04-29T23:44:08.620Z,47.23
2019-04-29T23:49:12.145Z,41.47
2019-04-29T23:54:17.178Z,46.60
2019-04-29T23:59:27.906Z,48.87
